Time;durP1;ratioP1;P1;durP2;ratioP2;P2;SDS_P1;SDS_P2;PMS_P1;PMS_P2;Temp;Humidity;BMP_temperature;BMP_pressure;BME280_temperature;BME280_humidity;BME280_pressure;Samples;Min_cycle;Max_cycle;Signal;HPM_P1;HPM_P2
2021/05/02 00:00:31;;;;;;;6.00;4.50;;;11.10;37.50;;;;;;5026539;28;20204;-82
2021/05/02 00:02:59;;;;;;;5.30;4.80;;;11.10;37.60;;;;;;5027244;28;20192;-82
2021/05/02 00:05:28;;;;;;;5.13;4.63;;;11.00;38.20;;;;;;5012557;28;20293;-82
2021/05/02 00:07:54;;;;;;;6.07;4.63;;;11.10;37.70;;;;;;5043494;28;20191;-82
2021/05/02 00:10:21;;;;;;;6.60;4.37;;;11.00;36.90;;;;;;5019508;28;20197;-82
2021/05/02 00:12:48;;;;;;;5.33;4.17;;;11.00;37.10;;;;;;5045035;28;20301;-82
2021/05/02 00:15:16;;;;;;;6.27;4.80;;;11.00;37.40;;;;;;5024724;28;20195;-81
2021/05/02 00:17:45;;;;;;;8.47;5.07;;;11.00;36.70;;;;;;5046740;28;20194;-80
2021/05/02 00:20:12;;;;;;;5.13;4.13;;;11.00;37.40;;;;;;5043649;28;20190;-82
2021/05/02 00:22:38;;;;;;;4.80;4.23;;;11.00;37.50;;;;;;5060037;28;20263;-81
2021/05/02 00:25:06;;;;;;;5.93;4.27;;;11.00;37.30;;;;;;5060391;28;20231;-82
2021/05/02 00:27:32;;;;;;;5.57;4.47;;;11.00;36.10;;;;;;5044579;28;20718;-82
2021/05/02 00:29:58;;;;;;;5.47;4.17;;;11.00;36.70;;;;;;5046938;28;20183;-81
2021/05/02 00:32:26;;;;;;;5.13;4.63;;;11.00;36.60;;;;;;5041384;28;20190;-83
2021/05/02 00:34:53;;;;;;;5.80;4.90;;;11.00;37.10;;;;;;5054276;28;20183;-82
2021/05/02 00:37:20;;;;;;;6.27;4.27;;;10.90;36.70;;;;;;5048186;28;20199;-82
2021/05/02 00:39:46;;;;;;;4.67;4.27;;;10.90;36.80;;;;;;5060520;28;20567;-82
2021/05/02 00:42:20;;;;;;;5.50;4.67;;;10.90;37.00;;;;;;5060477;28;20233;-82
2021/05/02 00:44:50;;;;;;;5.13;3.90;;;10.90;37.00;;;;;;5061938;28;20192;-82
2021/05/02 00:47:25;;;;;;;6.03;4.13;;;10.90;36.60;;;;;;5036496;28;20210;-82
2021/05/02 00:49:58;;;;;;;4.37;3.90;;;10.90;36.40;;;;;;5066030;28;20186;-82
2021/05/02 00:52:50;;;;;;;5.63;4.53;;;10.90;36.10;;;;;;5047871;28;20183;-82
2021/05/02 00:55:28;;;;;;;6.40;4.57;;;10.90;36.50;;;;;;5062356;28;20847;-81
2021/05/02 00:58:05;;;;;;;5.07;4.60;;;10.90;35.90;;;;;;5048344;28;20203;-82
2021/05/02 01:00:33;;;;;;;6.37;4.63;;;11.00;35.70;;;;;;5059675;28;20190;-82
2021/05/02 01:03:03;;;;;;;4.50;4.10;;;11.00;35.30;;;;;;5043655;28;20183;-82
2021/05/02 01:05:31;;;;;;;5.43;4.37;;;11.00;36.30;;;;;;5061721;28;20203;-82
2021/05/02 01:07:59;;;;;;;8.47;4.93;;;10.90;35.50;;;;;;5049137;28;20185;-82
2021/05/02 01:10:27;;;;;;;4.67;4.00;;;10.90;36.10;;;;;;5044973;28;20200;-82
2021/05/02 01:12:55;;;;;;;5.43;4.20;;;10.90;35.50;;;;;;5040341;28;20279;-81
2021/05/02 01:15:25;;;;;;;5.53;4.47;;;10.90;36.30;;;;;;5041333;28;20180;-82
2021/05/02 01:18:02;;;;;;;5.10;4.60;;;10.80;36.50;;;;;;5056719;28;20279;-81
2021/05/02 01:20:33;;;;;;;8.57;4.83;;;10.80;36.10;;;;;;5058617;28;20182;-82
2021/05/02 01:23:04;;;;;;;4.90;4.50;;;10.80;35.80;;;;;;5041253;28;20231;-82
2021/05/02 01:25:30;;;;;;;6.00;3.83;;;10.80;36.50;;;;;;5046191;28;20214;-82
2021/05/02 01:27:58;;;;;;;5.10;4.23;;;10.80;36.60;;;;;;5050876;28;20176;-81
2021/05/02 01:30:26;;;;;;;5.97;4.63;;;10.80;36.20;;;;;;5045227;28;20192;-81
2021/05/02 01:32:52;;;;;;;5.37;4.03;;;10.80;36.80;;;;;;5059883;28;20216;-81
2021/05/02 01:35:17;;;;;;;4.67;4.17;;;10.80;37.10;;;;;;5042607;28;20198;-81
2021/05/02 01:37:45;;;;;;;4.47;4.03;;;10.70;37.40;;;;;;5035864;28;20259;-84
2021/05/02 01:40:11;;;;;;;5.13;3.93;;;10.70;37.00;;;;;;5058341;28;20225;-81
2021/05/02 01:42:37;;;;;;;5.67;4.73;;;10.70;37.90;;;;;;5047802;28;20190;-79
2021/05/02 01:45:05;;;;;;;5.40;4.10;;;10.60;37.30;;;;;;5041492;28;20199;-79
2021/05/02 01:47:31;;;;;;;4.20;3.67;;;10.60;37.80;;;;;;5044237;28;20194;-82
2021/05/02 01:50:06;;;;;;;4.73;4.33;;;10.60;37.80;;;;;;5043839;28;20188;-81
2021/05/02 01:52:35;;;;;;;6.87;4.47;;;10.60;37.80;;;;;;5056701;28;20198;-81
2021/05/02 01:55:03;;;;;;;5.30;4.10;;;10.60;37.80;;;;;;5050584;28;20175;-81
2021/05/02 01:57:31;;;;;;;6.57;5.33;;;10.60;37.90;;;;;;5044774;28;20199;-81
2021/05/02 02:00:00;;;;;;;5.13;3.87;;;10.50;37.80;;;;;;5047324;28;20176;-81
2021/05/02 02:02:27;;;;;;;4.33;4.00;;;10.40;38.20;;;;;;5036146;28;20243;-82
2021/05/02 02:04:56;;;;;;;5.03;4.27;;;10.40;38.70;;;;;;5036510;28;20681;-82
2021/05/02 02:07:22;;;;;;;5.10;4.00;;;10.50;39.00;;;;;;5063240;28;20233;-81
2021/05/02 02:09:49;;;;;;;4.93;4.43;;;10.40;38.90;;;;;;5052990;28;20190;-82
2021/05/02 02:12:16;;;;;;;5.73;4.20;;;10.30;39.30;;;;;;5057688;28;20198;-81
2021/05/02 02:14:42;;;;;;;5.90;4.20;;;10.40;40.00;;;;;;5049265;28;20196;-81
2021/05/02 02:17:08;;;;;;;4.47;4.07;;;10.40;39.90;;;;;;5059746;28;20253;-82
2021/05/02 02:19:35;;;;;;;6.13;4.10;;;10.20;40.10;;;;;;5044582;28;20228;-83
2021/05/02 02:22:02;;;;;;;6.13;4.23;;;10.20;40.70;;;;;;5047859;28;20193;-81
2021/05/02 02:24:53;;;;;;;6.20;4.70;;;10.10;41.30;;;;;;5047341;28;20253;-81
2021/05/02 02:27:20;;;;;;;4.90;4.50;;;10.00;41.60;;;;;;5045294;28;20675;-81
2021/05/02 02:29:48;;;;;;;5.07;4.57;;;10.00;41.90;;;;;;5056890;28;20210;-81
2021/05/02 02:32:16;;;;;;;5.37;4.80;;;10.00;42.30;;;;;;5053559;28;20259;-80
2021/05/02 02:34:45;;;;;;;4.67;4.13;;;9.90;43.30;;;;;;5032805;28;20238;-81
2021/05/02 02:37:13;;;;;;;5.97;4.30;;;9.90;43.50;;;;;;5046547;28;20641;-82
2021/05/02 02:39:41;;;;;;;5.10;4.00;;;9.80;43.60;;;;;;5051747;28;20186;-82
2021/05/02 02:42:11;;;;;;;6.27;4.40;;;9.80;44.10;;;;;;5041993;28;20194;-82
2021/05/02 02:44:42;;;;;;;5.00;4.33;;;9.80;44.40;;;;;;5047050;28;20205;-82
2021/05/02 02:47:11;;;;;;;5.20;4.20;;;9.70;44.50;;;;;;5041291;28;20222;-81
2021/05/02 02:49:45;;;;;;;4.77;4.27;;;9.70;44.60;;;;;;5058680;28;20191;-81
2021/05/02 02:52:20;;;;;;;4.73;4.30;;;9.70;45.00;;;;;;5055277;28;20653;-81
2021/05/02 02:54:56;;;;;;;7.17;4.23;;;9.70;44.80;;;;;;5064637;28;20194;-82
2021/05/02 02:57:25;;;;;;;4.43;4.00;;;9.70;45.90;;;;;;5065898;28;20182;-82
2021/05/02 02:59:54;;;;;;;5.10;4.60;;;9.70;45.90;;;;;;5062657;28;20183;-82
2021/05/02 03:02:22;;;;;;;4.73;4.10;;;9.60;45.70;;;;;;5046677;28;20220;-82
2021/05/02 03:04:52;;;;;;;6.03;4.60;;;9.70;46.90;;;;;;5050966;28;20205;-82
2021/05/02 03:07:21;;;;;;;5.77;4.23;;;9.50;46.80;;;;;;5046733;28;20222;-82
2021/05/02 03:09:50;;;;;;;5.93;4.33;;;9.50;46.70;;;;;;5052434;28;20190;-84
2021/05/02 03:12:20;;;;;;;7.17;5.00;;;9.50;46.20;;;;;;5052747;28;20213;-81
2021/05/02 03:14:48;;;;;;;7.67;4.33;;;9.50;46.80;;;;;;5051044;28;20183;-82
2021/05/02 03:17:19;;;;;;;5.53;4.87;;;9.50;46.70;;;;;;5048271;28;20194;-81
2021/05/02 03:19:51;;;;;;;5.17;4.60;;;9.50;46.70;;;;;;5050523;28;20216;-82
2021/05/02 03:22:30;;;;;;;5.57;4.60;;;9.50;46.20;;;;;;5062692;28;20388;-82
2021/05/02 03:24:59;;;;;;;4.80;4.40;;;9.40;46.70;;;;;;5062077;28;20205;-81
2021/05/02 03:27:31;;;;;;;5.43;4.90;;;9.40;46.00;;;;;;5050873;28;20195;-81
2021/05/02 03:30:05;;;;;;;5.47;4.77;;;9.30;46.40;;;;;;5050441;28;20729;-81
2021/05/02 03:32:34;;;;;;;5.10;4.60;;;9.30;46.20;;;;;;5027955;28;20191;-81
2021/05/02 03:35:02;;;;;;;5.37;4.73;;;9.30;46.60;;;;;;5049194;28;20331;-81
2021/05/02 03:37:32;;;;;;;5.93;5.27;;;9.30;46.60;;;;;;5041000;28;20662;-81
2021/05/02 03:39:58;;;;;;;6.23;5.23;;;9.20;46.50;;;;;;5061251;28;20191;-81
2021/05/02 03:42:25;;;;;;;6.57;5.40;;;9.20;46.50;;;;;;5046038;28;20214;-81
2021/05/02 03:44:50;;;;;;;6.30;5.23;;;9.20;46.50;;;;;;5045538;28;20194;-81
2021/05/02 03:47:16;;;;;;;5.80;5.17;;;9.20;46.00;;;;;;5048770;28;20610;-81
2021/05/02 03:49:41;;;;;;;6.30;5.37;;;9.20;46.50;;;;;;5047541;28;20240;-81
2021/05/02 03:52:07;;;;;;;5.80;5.00;;;9.20;46.60;;;;;;5040609;28;20662;-81
2021/05/02 03:54:33;;;;;;;5.70;5.10;;;9.10;46.80;;;;;;5047660;28;20690;-81
2021/05/02 03:56:58;;;;;;;6.77;5.43;;;9.10;47.50;;;;;;5062043;28;20224;-81
2021/05/02 03:59:26;;;;;;;5.97;5.00;;;9.10;47.60;;;;;;5046702;28;20210;-81
2021/05/02 04:01:54;;;;;;;8.47;5.97;;;9.10;47.70;;;;;;5063507;28;20197;-81
2021/05/02 04:04:25;;;;;;;7.27;5.47;;;9.10;48.40;;;;;;5058079;28;20194;-81
2021/05/02 04:06:51;;;;;;;8.63;6.17;;;9.00;48.20;;;;;;5037148;28;20218;-81
2021/05/02 04:09:18;;;;;;;7.37;5.03;;;9.00;48.40;;;;;;5052554;28;20183;-81
2021/05/02 04:11:45;;;;;;;7.50;5.73;;;9.00;48.60;;;;;;5051936;28;20186;-81
2021/05/02 04:14:14;;;;;;;8.80;5.57;;;9.00;49.10;;;;;;5062785;28;20233;-81
2021/05/02 04:16:40;;;;;;;8.90;5.93;;;8.90;49.40;;;;;;5045584;28;20196;-81
2021/05/02 04:19:08;;;;;;;8.27;5.70;;;8.90;49.60;;;;;;5063350;28;20251;-81
2021/05/02 04:21:35;;;;;;;8.63;5.83;;;8.90;50.30;;;;;;5041291;28;20281;-81
2021/05/02 04:24:01;;;;;;;6.83;5.07;;;8.80;50.50;;;;;;5052949;28;20854;-80
2021/05/02 04:26:27;;;;;;;9.10;6.23;;;8.70;50.70;;;;;;5047435;28;20206;-81
2021/05/02 04:28:52;;;;;;;9.53;6.63;;;8.70;51.00;;;;;;5047878;28;20182;-81
2021/05/02 04:31:18;;;;;;;7.83;5.27;;;8.70;51.50;;;;;;5063309;28;20201;-81
2021/05/02 04:33:45;;;;;;;8.47;4.63;;;8.60;51.70;;;;;;5052622;28;20198;-81
2021/05/02 04:36:10;;;;;;;8.53;6.00;;;8.70;52.00;;;;;;5058774;28;20194;-82
2021/05/02 04:38:37;;;;;;;7.50;6.03;;;8.70;51.80;;;;;;5061054;28;20182;-82
2021/05/02 04:41:04;;;;;;;10.23;6.30;;;8.70;52.50;;;;;;5046454;28;20646;-82
2021/05/02 04:43:29;;;;;;;9.17;5.20;;;8.60;52.90;;;;;;5050100;28;20214;-82
2021/05/02 04:45:55;;;;;;;9.77;7.07;;;8.60;53.20;;;;;;5061316;28;20211;-81
2021/05/02 04:48:21;;;;;;;8.97;7.73;;;8.60;53.80;;;;;;5048043;28;20650;-82
2021/05/02 04:50:46;;;;;;;8.97;7.33;;;8.60;53.90;;;;;;5050788;28;20206;-82
2021/05/02 04:53:12;;;;;;;10.43;6.87;;;8.60;53.90;;;;;;5052146;28;20194;-82
2021/05/02 04:55:38;;;;;;;12.17;7.97;;;8.60;54.70;;;;;;5042251;28;20186;-82
2021/05/02 04:58:06;;;;;;;9.57;7.57;;;8.50;54.60;;;;;;5036651;28;20572;-82
2021/05/02 05:00:32;;;;;;;9.40;7.40;;;8.50;54.60;;;;;;5052603;28;20190;-82
2021/05/02 05:02:58;;;;;;;10.33;7.93;;;8.40;54.70;;;;;;5047205;28;20191;-80
2021/05/02 05:05:24;;;;;;;10.77;7.40;;;8.50;55.00;;;;;;5050897;28;20237;-81
2021/05/02 05:07:50;;;;;;;11.80;8.67;;;8.40;55.80;;;;;;5048714;28;20197;-80
2021/05/02 05:10:16;;;;;;;11.70;8.63;;;8.30;56.20;;;;;;5047635;28;20183;-80
2021/05/02 05:12:42;;;;;;;12.00;8.43;;;8.40;56.20;;;;;;5045363;28;20207;-81
2021/05/02 05:15:09;;;;;;;8.57;6.47;;;8.40;56.40;;;;;;5042853;28;20200;-81
2021/05/02 05:17:35;;;;;;;12.23;9.00;;;8.30;57.10;;;;;;5061310;28;20190;-81
2021/05/02 05:20:01;;;;;;;13.57;9.07;;;8.30;56.90;;;;;;5061122;28;20190;-81
2021/05/02 05:22:27;;;;;;;11.70;8.37;;;8.30;57.90;;;;;;5043127;28;20622;-81
2021/05/02 05:24:52;;;;;;;15.63;9.50;;;8.30;58.50;;;;;;5042184;28;20190;-81
2021/05/02 05:27:18;;;;;;;12.67;9.30;;;8.20;58.50;;;;;;5043798;28;20331;-81
2021/05/02 05:29:44;;;;;;;11.33;8.60;;;8.20;58.90;;;;;;5043939;28;20187;-81
2021/05/02 05:32:09;;;;;;;11.27;8.63;;;8.20;58.70;;;;;;5046288;28;20290;-81
2021/05/02 05:34:35;;;;;;;12.37;9.17;;;8.30;58.90;;;;;;5046286;28;20193;-81
2021/05/02 05:37:01;;;;;;;14.27;9.63;;;8.30;59.50;;;;;;5062858;28;20194;-81
2021/05/02 05:39:26;;;;;;;15.10;9.30;;;8.40;58.70;;;;;;5043832;28;20190;-81
2021/05/02 05:41:52;;;;;;;11.83;9.87;;;8.40;59.30;;;;;;5048303;28;20194;-81
2021/05/02 05:44:18;;;;;;;12.23;8.83;;;8.50;58.50;;;;;;5061838;28;20199;-81
2021/05/02 05:46:44;;;;;;;12.13;8.97;;;8.60;59.30;;;;;;5061207;28;20220;-81
2021/05/02 05:49:11;;;;;;;11.90;9.33;;;8.70;58.70;;;;;;5047143;28;20218;-81
2021/05/02 05:51:37;;;;;;;13.77;9.83;;;8.80;58.50;;;;;;5052829;28;20197;-80
2021/05/02 05:54:03;;;;;;;10.80;9.03;;;8.70;58.10;;;;;;5041100;28;20190;-80
2021/05/02 05:56:28;;;;;;;14.07;9.47;;;8.70;58.50;;;;;;5045396;28;20232;-78
2021/05/02 05:58:54;;;;;;;15.13;10.43;;;8.60;58.30;;;;;;5044961;28;20206;-81
2021/05/02 06:01:20;;;;;;;15.27;10.00;;;8.60;58.90;;;;;;5042931;28;20298;-80
2021/05/02 06:03:45;;;;;;;13.20;10.30;;;8.80;59.00;;;;;;5042302;28;20195;-81
2021/05/02 06:06:11;;;;;;;16.40;11.37;;;8.70;58.80;;;;;;5043464;28;20210;-81
2021/05/02 06:08:37;;;;;;;15.00;10.90;;;8.70;58.20;;;;;;5046238;28;20203;-81
2021/05/02 06:11:02;;;;;;;13.73;10.17;;;8.70;57.40;;;;;;5042983;28;20213;-81
2021/05/02 06:13:28;;;;;;;13.13;9.60;;;8.70;56.90;;;;;;5048173;28;20272;-81
2021/05/02 06:15:54;;;;;;;15.67;9.73;;;8.70;56.60;;;;;;5049002;28;20187;-81
2021/05/02 06:18:19;;;;;;;11.07;8.17;;;8.70;55.20;;;;;;5049905;28;20613;-81
2021/05/02 06:20:45;;;;;;;11.53;7.30;;;8.60;54.60;;;;;;5045937;28;20194;-81
2021/05/02 06:23:11;;;;;;;12.77;8.07;;;8.40;55.40;;;;;;5044678;28;20194;-85
2021/05/02 06:25:36;;;;;;;12.93;8.23;;;8.50;56.10;;;;;;5061165;28;20210;-84
2021/05/02 06:28:02;;;;;;;12.23;9.00;;;8.50;54.90;;;;;;5046545;28;20191;-87
2021/05/02 06:30:28;;;;;;;14.83;9.13;;;8.50;55.50;;;;;;5052607;28;20557;-86
2021/05/02 06:32:54;;;;;;;11.63;8.50;;;9.30;55.30;;;;;;5045239;28;20262;-85
2021/05/02 06:35:19;;;;;;;9.73;8.20;;;8.90;53.60;;;;;;5040126;28;20251;-86
2021/05/02 06:37:45;;;;;;;13.13;9.17;;;9.00;52.80;;;;;;5024304;28;20206;-85
2021/05/02 06:40:11;;;;;;;13.33;8.30;;;9.20;51.70;;;;;;5040519;28;20286;-86
2021/05/02 06:42:37;;;;;;;12.33;7.80;;;9.30;51.80;;;;;;5045493;28;20175;-85
2021/05/02 06:45:04;;;;;;;12.40;9.33;;;9.40;50.20;;;;;;5046177;28;20202;-85
2021/05/02 06:47:30;;;;;;;12.17;6.93;;;;;;;;;;5061337;28;20191;-86
2021/05/02 06:49:56;;;;;;;9.50;7.43;;;9.50;50.20;;;;;;5057048;28;20199;-84
2021/05/02 06:52:22;;;;;;;11.40;7.87;;;9.70;48.70;;;;;;5048317;28;20204;-84
2021/05/02 06:54:55;;;;;;;9.43;6.63;;;9.80;49.20;;;;;;5066391;28;20221;-85
2021/05/02 06:57:21;;;;;;;9.13;6.50;;;;;;;;;;5045518;28;20205;-80
2021/05/02 06:59:47;;;;;;;10.67;6.53;;;10.30;43.60;;;;;;5047400;28;20195;-79
2021/05/02 07:02:13;;;;;;;7.40;5.20;;;;;;;;;;5043800;28;20237;-84
2021/05/02 07:04:39;;;;;;;7.93;5.27;;;10.50;41.00;;;;;;5040101;28;20166;-85
2021/05/02 07:07:15;;;;;;;10.33;5.07;;;10.60;40.70;;;;;;5062917;28;20220;-85
2021/05/02 07:09:41;;;;;;;8.07;5.63;;;;;;;;;;5051728;28;20545;-86
2021/05/02 07:12:08;;;;;;;6.57;4.60;;;10.70;40.50;;;;;;5064079;28;20198;-85
2021/05/02 07:14:34;;;;;;;7.33;5.27;;;10.70;41.00;;;;;;5066723;28;20191;-86
2021/05/02 07:17:00;;;;;;;4.67;4.07;;;10.70;39.10;;;;;;5044357;28;20195;-86
2021/05/02 07:19:25;;;;;;;6.87;5.27;;;10.60;39.70;;;;;;5046829;28;20209;-86
2021/05/02 07:22:01;;;;;;;6.97;5.27;;;10.60;40.30;;;;;;5060310;28;20186;-86
2021/05/02 07:24:26;;;;;;;9.27;6.67;;;10.60;40.90;;;;;;5051450;28;20190;-86
2021/05/02 07:26:52;;;;;;;12.93;7.17;;;;;;;;;;5063310;28;20211;-87
2021/05/02 07:29:19;;;;;;;10.50;7.07;;;10.70;42.80;;;;;;5063480;28;21164;-85
2021/05/02 07:31:46;;;;;;;9.30;7.10;;;10.60;42.20;;;;;;5059357;28;20195;-85
2021/05/02 07:34:11;;;;;;;8.73;5.97;;;10.50;43.70;;;;;;5051847;28;20261;-84
2021/05/02 07:36:37;;;;;;;7.50;5.10;;;10.50;42.20;;;;;;5062816;28;20187;-84
2021/05/02 07:39:05;;;;;;;9.10;6.23;;;10.50;41.70;;;;;;5048651;28;20198;-84
2021/05/02 07:41:32;;;;;;;7.83;5.70;;;;;;;;;;5048388;28;20191;-84
2021/05/02 07:43:58;;;;;;;7.37;4.00;;;10.60;42.70;;;;;;5061382;28;20187;-85
2021/05/02 07:46:23;;;;;;;7.73;6.30;;;10.70;42.50;;;;;;5029565;28;20222;-86
2021/05/02 07:48:49;;;;;;;8.03;4.87;;;11.00;43.00;;;;;;5065197;28;20202;-85
2021/05/02 07:51:15;;;;;;;6.97;5.27;;;;;;;;;;5068615;28;20190;-84
2021/05/02 07:53:41;;;;;;;7.70;5.03;;;;;;;;;;5040310;28;20180;-81
2021/05/02 07:56:07;;;;;;;8.67;4.10;;;11.20;39.10;;;;;;5064979;28;20183;-81
2021/05/02 07:58:32;;;;;;;9.60;5.73;;;11.40;40.00;;;;;;5051809;28;20208;-81
2021/05/02 08:00:58;;;;;;;8.87;5.63;;;11.50;40.40;;;;;;5043633;28;20196;-80
2021/05/02 08:03:24;;;;;;;8.07;5.10;;;11.60;39.80;;;;;;5045877;28;20188;-80
2021/05/02 08:05:51;;;;;;;6.40;4.27;;;11.50;40.40;;;;;;5043624;28;20239;-81
2021/05/02 08:08:17;;;;;;;4.67;3.40;;;11.10;38.70;;;;;;5062054;28;20182;-81
2021/05/02 08:10:42;;;;;;;5.10;4.23;;;10.70;39.30;;;;;;5062184;28;20213;-81
2021/05/02 08:13:08;;;;;;;10.37;5.43;;;10.80;40.00;;;;;;5038977;28;20214;-81
2021/05/02 08:15:34;;;;;;;6.33;4.83;;;10.90;40.00;;;;;;5043280;28;20275;-83
2021/05/02 08:18:01;;;;;;;8.90;5.97;;;11.10;38.90;;;;;;5040122;28;20196;-84
2021/05/02 08:20:26;;;;;;;5.03;3.87;;;11.00;38.80;;;;;;5045578;28;20224;-84
2021/05/02 08:22:52;;;;;;;3.83;3.03;;;11.10;38.30;;;;;;5062934;28;20184;-84
2021/05/02 08:25:19;;;;;;;5.60;4.30;;;11.00;36.80;;;;;;5062643;28;21203;-86
2021/05/02 08:27:47;;;;;;;3.87;3.13;;;11.40;36.10;;;;;;5044146;28;20186;-86
2021/05/02 08:30:13;;;;;;;5.77;4.43;;;11.80;36.90;;;;;;5046236;28;20188;-85
2021/05/02 08:32:40;;;;;;;6.40;4.23;;;11.50;36.30;;;;;;5064276;28;20634;-84
2021/05/02 08:35:10;;;;;;;5.77;4.00;;;11.40;38.00;;;;;;5055533;28;20190;-85
2021/05/02 08:37:37;;;;;;;5.70;4.40;;;11.80;36.10;;;;;;5066857;28;20214;-89
2021/05/02 08:40:08;;;;;;;6.47;4.70;;;;;;;;;;5049605;28;20259;-89
2021/05/02 08:42:40;;;;;;;10.50;5.10;;;;;;;;;;5064205;28;20650;-82
2021/05/02 08:45:07;;;;;;;9.27;5.23;;;11.60;37.00;;;;;;5049085;28;20190;-83
2021/05/02 08:47:37;;;;;;;5.70;4.50;;;;;;;;;;5064212;28;20222;-83
2021/05/02 08:50:09;;;;;;;6.90;3.37;;;11.30;36.70;;;;;;5063398;28;20187;-85
2021/05/02 08:52:36;;;;;;;4.93;4.30;;;;;;;;;;5055568;28;20246;-84
2021/05/02 08:55:03;;;;;;;5.40;4.43;;;;;;;;;;5046723;28;20186;-84
2021/05/02 08:57:29;;;;;;;5.00;4.37;;;;;;;;;;5045569;28;20577;-85
2021/05/02 08:59:56;;;;;;;7.70;4.47;;;;;;;;;;5047814;28;20192;-85
2021/05/02 09:02:26;;;;;;;5.90;4.57;;;12.00;36.20;;;;;;5058301;28;20186;-85
2021/05/02 09:04:57;;;;;;;7.87;5.17;;;11.70;34.10;;;;;;5049584;28;20198;-85
2021/05/02 09:07:23;;;;;;;6.10;4.57;;;11.60;34.50;;;;;;5047470;28;20281;-85
2021/05/02 09:09:50;;;;;;;5.70;4.57;;;11.90;35.60;;;;;;5050073;28;20198;-85
2021/05/02 09:12:35;;;;;;;8.77;4.30;;;12.10;36.00;;;;;;5051709;28;20193;-84
2021/05/02 09:15:04;;;;;;;5.03;4.50;;;12.40;35.70;;;;;;5019959;28;20182;-85
2021/05/02 09:17:37;;;;;;;8.50;4.87;;;;;;;;;;5037290;28;20192;-85
2021/05/02 09:20:04;;;;;;;4.13;3.73;;;11.60;36.50;;;;;;5036614;28;20179;-85
2021/05/02 09:22:31;;;;;;;4.53;3.40;;;11.10;38.10;;;;;;5021874;28;20225;-84
2021/05/02 09:25:11;;;;;;;4.67;4.10;;;11.10;38.80;;;;;;5039028;28;20325;-87
2021/05/02 09:27:50;;;;;;;5.53;3.87;;;11.20;37.80;;;;;;5026222;28;20254;-85
2021/05/02 09:30:21;;;;;;;5.47;4.27;;;11.30;37.90;;;;;;5036678;28;20204;-87
2021/05/02 09:32:49;;;;;;;5.43;3.33;;;;;;;;;;5047096;28;20202;-86
2021/05/02 09:35:35;;;;;;;4.40;3.87;;;11.80;37.00;;;;;;5020593;28;20206;-86
2021/05/02 09:38:18;;;;;;;6.57;4.00;;;11.90;36.90;;;;;;5051259;28;20301;-88
2021/05/02 09:40:47;;;;;;;6.37;4.27;;;11.50;38.10;;;;;;5021458;28;20223;-88
2021/05/02 09:43:37;;;;;;;4.03;2.87;;;11.70;37.00;;;;;;5015148;28;20201;-84
2021/05/02 09:46:40;;;;;;;4.90;3.73;;;11.80;36.70;;;;;;5015251;28;20316;-90
2021/05/02 09:49:09;;;;;;;5.37;3.77;;;11.70;37.20;;;;;;5015548;28;20190;-91
2021/05/02 09:51:53;;;;;;;5.43;3.70;;;11.70;37.50;;;;;;5026782;28;20220;-90
2021/05/02 09:54:27;;;;;;;5.30;3.07;;;11.80;36.80;;;;;;5022730;28;20226;-90
2021/05/02 09:56:55;;;;;;;2.97;2.53;;;12.00;35.70;;;;;;5022428;28;20670;-90
2021/05/02 09:59:29;;;;;;;4.47;3.27;;;12.10;36.00;;;;;;5003042;28;20222;-85
2021/05/02 10:02:10;;;;;;;3.23;2.80;;;12.20;36.30;;;;;;5016544;28;20239;-85
2021/05/02 10:04:48;;;;;;;4.30;3.40;;;12.20;36.60;;;;;;5011667;28;20202;-87
2021/05/02 10:07:29;;;;;;;5.83;3.40;;;12.40;37.10;;;;;;5019989;28;20229;-88
2021/05/02 10:09:59;;;;;;;5.77;3.63;;;12.40;36.70;;;;;;5010503;28;20351;-85
2021/05/02 10:12:33;;;;;;;3.93;3.53;;;12.30;37.40;;;;;;5056205;28;20305;-86
2021/05/02 10:15:00;;;;;;;6.00;3.87;;;12.20;38.00;;;;;;5032245;28;20178;-85
2021/05/02 10:17:26;;;;;;;5.07;3.57;;;12.30;37.60;;;;;;5055957;28;20212;-87
2021/05/02 10:19:53;;;;;;;3.97;3.50;;;12.30;37.80;;;;;;5041114;28;20195;-87
2021/05/02 10:22:21;;;;;;;3.90;3.40;;;12.10;38.60;;;;;;5045361;28;20217;-84
2021/05/02 10:24:47;;;;;;;3.70;3.33;;;12.00;39.10;;;;;;5058707;28;20251;-81
2021/05/02 10:27:13;;;;;;;3.53;2.70;;;12.30;38.70;;;;;;5046105;28;20214;-82
2021/05/02 10:29:41;;;;;;;3.43;3.10;;;12.30;37.70;;;;;;5060433;28;20228;-80
2021/05/02 10:32:07;;;;;;;2.90;2.53;;;12.10;38.00;;;;;;5042868;28;20194;-82
2021/05/02 10:34:36;;;;;;;3.33;2.97;;;11.80;38.40;;;;;;5043689;28;20218;-82
2021/05/02 10:37:23;;;;;;;2.97;2.63;;;11.90;38.30;;;;;;5055853;28;20596;-80
2021/05/02 10:40:07;;;;;;;2.53;2.33;;;11.90;36.80;;;;;;5058576;28;20168;-81
2021/05/02 10:42:38;;;;;;;3.53;3.03;;;11.90;37.10;;;;;;5062076;28;20192;-82
2021/05/02 10:45:27;;;;;;;4.50;2.87;;;11.70;37.00;;;;;;5039430;28;20187;-82
2021/05/02 10:47:57;;;;;;;2.07;1.90;;;11.80;37.90;;;;;;5059235;28;20213;-83
2021/05/02 10:50:43;;;;;;;4.53;2.90;;;12.60;36.30;;;;;;5035053;28;21231;-80
2021/05/02 10:53:17;;;;;;;2.93;2.53;;;12.60;36.70;;;;;;5044305;28;20271;-82
2021/05/02 10:55:46;;;;;;;3.17;2.87;;;12.70;35.30;;;;;;5031401;28;20675;-81
2021/05/02 10:58:42;;;;;;;2.67;2.47;;;12.80;35.70;;;;;;5066960;28;20691;-80
2021/05/02 11:01:10;;;;;;;3.83;2.40;;;12.70;34.90;;;;;;5046989;28;20210;-81
2021/05/02 11:03:38;;;;;;;2.50;2.30;;;12.60;33.80;;;;;;5045802;28;20182;-83
2021/05/02 11:06:15;;;;;;;3.30;2.20;;;12.00;33.90;;;;;;5051706;28;20238;-83
2021/05/02 11:08:58;;;;;;;5.67;3.20;;;11.90;34.10;;;;;;5067741;28;20186;-81
2021/05/02 11:11:33;;;;;;;5.53;2.50;;;;;;;;;;5043147;28;20550;-81
2021/05/02 11:14:11;;;;;;;3.77;2.67;;;12.20;34.80;;;;;;5067539;28;20205;-82
2021/05/02 11:16:37;;;;;;;3.63;2.67;;;;;;;;;;5067500;28;20188;-82
2021/05/02 11:19:09;;;;;;;4.57;3.07;;;11.90;34.60;;;;;;5068034;28;20221;-85
2021/05/02 11:21:50;;;;;;;3.43;2.73;;;11.70;37.00;;;;;;5029788;28;20203;-81
2021/05/02 11:24:20;;;;;;;4.70;2.70;;;11.50;37.00;;;;;;5048135;28;20193;-86
2021/05/02 11:27:06;;;;;;;4.97;2.87;;;11.40;37.80;;;;;;5051906;28;20207;-84
2021/05/02 11:32:27;;;;;;;3.67;2.30;;;10.70;37.10;;;;;;5056509;28;20251;-86
2021/05/02 11:35:04;;;;;;;3.33;2.80;;;10.50;37.70;;;;;;5061842;28;20258;-80
2021/05/02 11:38:05;;;;;;;3.57;2.37;;;10.70;37.90;;;;;;5056518;28;20253;-81
2021/05/02 11:40:35;;;;;;;3.57;2.70;;;10.50;38.10;;;;;;5055579;28;20283;-81
2021/05/02 11:43:16;;;;;;;4.63;3.37;;;10.90;38.50;;;;;;5036288;28;20713;-82
2021/05/02 11:45:45;;;;;;;3.10;2.57;;;11.00;38.20;;;;;;5052894;28;20283;-82
2021/05/02 11:48:21;;;;;;;3.63;3.07;;;11.30;38.50;;;;;;5051892;28;20247;-81
2021/05/02 11:50:49;;;;;;;4.63;3.63;;;11.40;37.70;;;;;;5056316;28;20250;-82
2021/05/02 11:53:40;;;;;;;4.00;3.23;;;11.60;36.80;;;;;;5019694;28;20266;-82
2021/05/02 11:56:25;;;;;;;4.97;3.70;;;12.10;35.60;;;;;;5055850;28;20249;-82
2021/05/02 11:58:55;;;;;;;5.23;3.87;;;12.20;36.40;;;;;;5040608;28;20619;-82
2021/05/02 12:01:29;;;;;;;4.03;3.60;;;13.20;34.70;;;;;;5035390;28;20263;-83
2021/05/02 12:04:09;;;;;;;4.27;3.47;;;13.30;35.20;;;;;;5037245;28;20708;-82
2021/05/02 12:06:38;;;;;;;3.97;3.30;;;15.20;30.90;;;;;;5034916;28;20297;-83
2021/05/02 12:09:33;;;;;;;4.70;2.47;;;16.20;28.60;;;;;;5037884;28;20210;-84
2021/05/02 12:12:01;;;;;;;3.00;2.53;;;16.60;28.40;;;;;;5028038;28;20216;-80
2021/05/02 12:14:29;;;;;;;5.50;3.00;;;15.60;26.90;;;;;;5013884;28;20556;-81
2021/05/02 12:16:58;;;;;;;4.23;3.17;;;15.10;27.90;;;;;;5018804;28;20194;-79
2021/05/02 12:19:24;;;;;;;4.27;2.80;;;14.30;29.40;;;;;;5031454;28;20188;-79
2021/05/02 12:21:50;;;;;;;4.00;2.83;;;13.80;30.90;;;;;;5014231;28;20679;-77
2021/05/02 12:24:28;;;;;;;3.53;2.83;;;13.80;31.50;;;;;;5024866;28;20789;-78
2021/05/02 12:26:58;;;;;;;4.60;3.07;;;;;;;;;;5010176;28;20229;-81
2021/05/02 12:29:26;;;;;;;3.53;2.67;;;;;;;;;;5013205;28;20300;-81
2021/05/02 12:32:06;;;;;;;3.97;3.00;;;12.50;33.00;;;;;;5011896;28;20205;-80
2021/05/02 12:34:41;;;;;;;3.50;2.77;;;12.60;31.40;;;;;;5023947;28;22099;-81
2021/05/02 12:37:20;;;;;;;3.53;2.33;;;12.80;30.10;;;;;;5027910;28;20259;-79
2021/05/02 12:39:48;;;;;;;3.80;2.80;;;13.00;30.20;;;;;;5054766;28;20202;-80
2021/05/02 12:42:14;;;;;;;4.03;2.90;;;13.60;30.10;;;;;;5060671;28;20236;-80
2021/05/02 12:44:41;;;;;;;3.80;2.87;;;14.40;30.00;;;;;;5043306;28;20191;-79
2021/05/02 12:47:17;;;;;;;2.97;2.53;;;15.20;28.60;;;;;;5042207;28;20242;-80
2021/05/02 12:49:57;;;;;;;5.53;2.97;;;15.50;28.10;;;;;;5035773;28;20215;-82
2021/05/02 12:52:29;;;;;;;4.10;2.87;;;14.50;29.30;;;;;;5046029;28;20178;-82
2021/05/02 12:54:55;;;;;;;3.13;2.47;;;14.40;28.80;;;;;;5063209;28;20178;-81
2021/05/02 12:57:26;;;;;;;3.13;2.50;;;14.40;29.40;;;;;;5051750;28;20187;-79
2021/05/02 13:02:25;;;;;;;3.40;2.17;;;16.50;27.40;;;;;;5059999;28;20308;-79
2021/05/02 13:05:00;;;;;;;2.77;2.33;;;17.60;26.20;;;;;;5056357;28;20198;-80
2021/05/02 13:07:41;;;;;;;4.63;2.30;;;17.00;25.70;;;;;;5037121;28;20241;-81
2021/05/02 13:10:22;;;;;;;3.13;2.27;;;16.00;26.00;;;;;;5056846;28;20249;-78
2021/05/02 13:13:03;;;;;;;4.07;2.83;;;15.10;27.60;;;;;;5055174;28;20203;-78